Предлагаем Вашему вниманию английскую версию страницы: AUTOTAF.ME UNIB - aviation weather forecast Bajkit

AUTOTAF UNIB - авиапрогноз Байкит

Сегодня рассвет 01:19 UTC, восход солнца 02:12 UTC,
местный полдень 05:47 UTC, заход солнца 09:21 UTC,
наступление темноты 10:14 UTC.

Краткий прогноз UNIB на 9 часов

AUTOTAF.ME UNIB 262000Z 2621/2706 VRB02MPS 0200 FG IC NSC      
  FM270600 VRB02MPS CAVOK

Детальный прогноз UNIB на 24 часа

AUTOTAF.ME UNIB 262000Z 2621/2721 VRB02MPS 0200 FG IC SKC TXM38/2718Z TNM48/2621Z    
  FM270600 VRB02MPS 9999 FEW160   
  BECMG 2713/2715 2000  
  BECMG 2716/2718 9999  
  FM272100 VRB02MPS 1000 BR SKC

Подробный табличный прогноз

Время (UTC) miniAUTOTAF на 3 ч WX FZLVL
M AGL
ICE TURB Т
(°С)
Тd
(°С)
f(%) QNH
(гПа)
WIND/T
18 VRB02MPS 0200 FG IC SKC FG IC SFC -47 -52 62 1045 ...
21 VRB02MPS 0200 FG IC SKC FG IC SFC -48 -52 63 1044 ...
27.01.2021
00 VRB02MPS 0200 FG IC SKC FG IC SFC -48 -52 63 1043 ...
03 VRB02MPS 0200 FG IC FEW290 FG IC SFC -48 -52 63 1041 ...
06 VRB02MPS 9999 FEW160 SFC MOD FL30/FL40 -44 -49 60 1037 ...
09 VRB02MPS 9999 BKN130 SFC MOD FL30/FL40 -42 -46 63 1032 ...
12 VRB02MPS 9999 BKN110 SFC MOD SFC/FL40 -40 -44 66 1029 ...
15 VRB02MPS 2000 SKC SFC MOD FL30/FL40 -39 -43 66 1025 ...
18 VRB02MPS 9999 FEW190 SFC -38 -42 66 1022 ...
21 VRB02MPS 1000 BR SKC BR SFC -39 -42 67 1020 ...
28.01.2021
00 VRB02MPS 0700 FG IC SKC FG IC SFC -39 -43 65 1020 ...
03 VRB02MPS 9999 SKC SFC -39 -44 65 1020 ...
06 02003MPS 3500 HZ SKC HZ SFC MOD SFC/FL30 -37 -42 60 1022 ...
09 VRB02MPS 9999 SKC SFC -37 -42 61 1025 ...
12 VRB02MPS 1000 BR SKC BR SFC -40 -44 64 1029 ...
15 VRB02MPS 1000 BR SKC BR SFC -42 -46 64 1031 ...


Широта 61.67762°, долгота 96.35342°, высота 260 м абс.
Средняя высота рельефа местности 347 м абс.
Прогнозы обновляются четыре раза в сутки: в 02, 08, 14, 20 ч всемирного времени.


Выбрать прогноз по другой модели Байкит
Онлайн-сводка гроз по Байкит (для РФ и ближнего зарубежья)
Карта фактических гроз в окрестностях Байкит
Динамические прогностические карты (ventusky.com)
Прогностическая карта высоты нижней границы облаков по Байкит (windy.com)
Выбрать другой город

Прогноз предназначен для личного научно-познавательного использования частными лицами
и не предназначен для принятия важных решений и выполнения реальных полётов воздушных судов

При копировании или ином использовании любых материалов данного сайта ссылка на © meteocenter.asia обязательна.

0.71/1.1